createdAt,value
2023-05-10T00:00:19.557Z,1.30
2023-05-10T00:02:47.564Z,0.90
2023-05-10T00:05:15.669Z,1.00
2023-05-10T00:07:45.844Z,0.80
2023-05-10T00:10:14.036Z,0.80
2023-05-10T00:12:42.564Z,2.73
2023-05-10T00:15:12.525Z,0.80
2023-05-10T00:17:41.225Z,0.80
2023-05-10T00:20:10.036Z,0.90
2023-05-10T00:22:37.902Z,0.83
2023-05-10T00:25:07.171Z,1.00
2023-05-10T00:27:35.079Z,0.90
2023-05-10T00:30:03.044Z,1.10
2023-05-10T00:32:32.541Z,0.90
2023-05-10T00:35:00.580Z,1.07
2023-05-10T00:37:28.675Z,1.00
2023-05-10T00:39:56.613Z,1.10
2023-05-10T00:42:24.544Z,1.27
2023-05-10T00:44:54.869Z,2.00
2023-05-10T00:47:22.899Z,1.00
2023-05-10T00:49:53.743Z,1.60
2023-05-10T00:52:21.777Z,1.57
2023-05-10T00:54:49.764Z,1.53
2023-05-10T00:57:18.156Z,1.60
2023-05-10T00:59:46.057Z,1.80
2023-05-10T01:02:14.215Z,1.77
2023-05-10T01:04:42.883Z,1.77
2023-05-10T01:07:12.574Z,2.17
2023-05-10T01:09:40.572Z,2.07
2023-05-10T01:12:08.951Z,2.00
2023-05-10T01:14:38.222Z,2.07
2023-05-10T01:17:07.436Z,2.10
2023-05-10T01:19:38.567Z,2.00
2023-05-10T01:22:16.019Z,1.60
2023-05-10T01:25:14.035Z,1.67
2023-05-10T01:28:05.968Z,1.93
2023-05-10T01:31:06.784Z,2.03
2023-05-10T01:33:37.778Z,2.20
2023-05-10T01:36:08.661Z,2.27
2023-05-10T01:38:43.814Z,2.37
2023-05-10T01:41:18.654Z,2.43
2023-05-10T01:43:52.597Z,2.20
2023-05-10T01:46:27.097Z,2.50
2023-05-10T01:48:57.948Z,2.57
2023-05-10T01:51:27.506Z,3.30
2023-05-10T01:54:01.407Z,3.33
2023-05-10T01:56:32.012Z,3.60
2023-05-10T01:59:00.925Z,3.00
2023-05-10T02:01:29.062Z,3.07
2023-05-10T02:04:00.317Z,3.10
2023-05-10T02:06:29.203Z,2.90
2023-05-10T02:08:57.262Z,3.50
2023-05-10T02:11:27.227Z,2.90
2023-05-10T02:13:56.172Z,3.10
2023-05-10T02:16:31.831Z,3.23
2023-05-10T02:19:03.905Z,3.13
2023-05-10T02:21:33.779Z,3.53
2023-05-10T02:24:03.061Z,3.40
2023-05-10T02:26:31.618Z,3.77
2023-05-10T02:29:00.587Z,3.60
2023-05-10T02:31:29.321Z,3.60
2023-05-10T02:33:57.461Z,3.03
2023-05-10T02:36:28.462Z,3.50
2023-05-10T02:38:56.601Z,3.40
2023-05-10T02:41:25.319Z,3.83
2023-05-10T02:43:54.415Z,3.87
2023-05-10T02:46:22.298Z,3.67
2023-05-10T02:48:50.188Z,3.87
2023-05-10T02:51:20.055Z,4.27
2023-05-10T02:53:51.336Z,3.83
2023-05-10T02:56:26.033Z,3.73
2023-05-10T02:58:54.464Z,3.90
2023-05-10T03:01:22.317Z,4.43
2023-05-10T03:03:50.513Z,4.10
2023-05-10T03:06:18.375Z,3.50
2023-05-10T03:08:46.790Z,3.53
2023-05-10T03:11:29.202Z,3.47
2023-05-10T03:14:10.941Z,3.60
2023-05-10T03:16:46.333Z,4.07
2023-05-10T03:19:18.862Z,3.80
2023-05-10T03:21:49.996Z,3.80
2023-05-10T03:24:18.631Z,4.40
2023-05-10T03:26:48.297Z,4.00
2023-05-10T03:29:19.439Z,4.47
2023-05-10T03:31:48.051Z,4.17
2023-05-10T03:34:16.683Z,4.40
2023-05-10T03:36:44.585Z,3.83
2023-05-10T03:39:12.392Z,4.07
2023-05-10T03:41:40.251Z,4.00
2023-05-10T03:44:09.453Z,4.50
2023-05-10T03:46:37.289Z,3.90
2023-05-10T03:49:05.357Z,4.40
2023-05-10T03:51:33.717Z,3.80
2023-05-10T03:54:01.628Z,4.03
2023-05-10T03:56:29.515Z,4.00
2023-05-10T03:58:57.386Z,3.97
2023-05-10T04:01:26.544Z,3.73
2023-05-10T04:03:54.447Z,4.10
2023-05-10T04:06:22.396Z,3.90
2023-05-10T04:08:50.233Z,4.20
2023-05-10T04:11:19.378Z,4.20
2023-05-10T04:13:47.320Z,3.80
2023-05-10T04:16:15.187Z,4.43
2023-05-10T04:18:44.408Z,3.93
2023-05-10T04:21:15.311Z,4.93
2023-05-10T04:23:43.315Z,4.30
2023-05-10T04:26:11.186Z,3.90
2023-05-10T04:28:39.026Z,4.00
2023-05-10T04:31:07.701Z,4.30
2023-05-10T04:33:36.465Z,4.20
2023-05-10T04:36:06.477Z,4.13
2023-05-10T04:38:34.405Z,4.60
2023-05-10T04:41:08.854Z,4.50
2023-05-10T04:43:37.123Z,5.13
2023-05-10T04:46:05.253Z,4.80
2023-05-10T04:48:33.134Z,5.00
2023-05-10T04:51:01.131Z,5.47
2023-05-10T04:53:30.324Z,5.70
2023-05-10T04:55:58.174Z,5.57
2023-05-10T04:58:26.029Z,5.00
2023-05-10T05:00:53.866Z,5.30
2023-05-10T05:03:21.922Z,5.13
2023-05-10T05:05:49.803Z,5.97
2023-05-10T05:08:17.699Z,5.10
2023-05-10T05:10:46.852Z,5.20
2023-05-10T05:13:14.946Z,5.40
2023-05-10T05:15:42.911Z,5.27
2023-05-10T05:18:10.778Z,4.60
2023-05-10T05:20:38.665Z,4.83
2023-05-10T05:23:06.564Z,4.83
2023-05-10T05:25:34.389Z,4.10
2023-05-10T05:28:03.671Z,4.40
2023-05-10T05:30:31.463Z,4.60
2023-05-10T05:33:01.377Z,4.40
2023-05-10T05:35:29.263Z,4.00
2023-05-10T05:37:57.186Z,4.33
2023-05-10T05:40:25.161Z,4.47
2023-05-10T05:42:52.965Z,4.53
2023-05-10T05:45:22.508Z,3.93
2023-05-10T05:47:50.362Z,4.47
2023-05-10T05:50:18.372Z,4.30
2023-05-10T05:52:46.232Z,4.40
2023-05-10T05:55:14.308Z,4.67
2023-05-10T05:57:42.465Z,4.60
2023-05-10T06:00:11.312Z,4.40
2023-05-10T06:02:43.256Z,4.50
2023-05-10T06:05:11.247Z,5.57
2023-05-10T06:07:39.080Z,4.00
2023-05-10T06:10:10.563Z,4.80
2023-05-10T06:12:38.494Z,4.83
2023-05-10T06:15:07.222Z,4.40
2023-05-10T06:17:35.642Z,4.40
2023-05-10T06:20:05.627Z,4.83
2023-05-10T06:22:33.477Z,4.30
2023-05-10T06:25:01.353Z,4.30
2023-05-10T06:27:29.150Z,4.20
2023-05-10T06:30:11.554Z,4.30
2023-05-10T06:32:40.040Z,4.00
2023-05-10T06:35:10.526Z,4.90
2023-05-10T06:37:38.417Z,4.30
2023-05-10T06:40:07.821Z,4.67
2023-05-10T06:42:35.721Z,4.47
2023-05-10T06:45:04.795Z,4.70
2023-05-10T06:47:32.676Z,4.50
2023-05-10T06:50:04.253Z,4.73
2023-05-10T06:52:33.639Z,4.50
2023-05-10T06:55:01.624Z,5.20
2023-05-10T06:57:31.786Z,4.53
2023-05-10T07:00:00.256Z,4.57
2023-05-10T07:02:28.306Z,4.90
2023-05-10T07:04:56.211Z,5.00
2023-05-10T07:07:24.035Z,4.53
2023-05-10T07:09:53.188Z,5.30
2023-05-10T07:12:21.921Z,5.10
2023-05-10T07:14:49.826Z,5.50
2023-05-10T07:17:17.757Z,4.77
2023-05-10T07:19:45.617Z,5.10
2023-05-10T07:22:13.975Z,5.20
2023-05-10T07:24:42.417Z,5.60
2023-05-10T07:27:11.655Z,4.80
2023-05-10T07:29:39.454Z,5.77
2023-05-10T07:32:07.882Z,5.10
2023-05-10T07:34:35.747Z,4.33
2023-05-10T07:37:03.722Z,5.10
2023-05-10T07:39:31.543Z,5.37
2023-05-10T07:41:59.403Z,4.50
2023-05-10T07:44:28.879Z,4.63
2023-05-10T07:46:56.739Z,3.90
2023-05-10T07:49:25.631Z,4.00
2023-05-10T07:51:53.480Z,4.20
2023-05-10T07:54:21.590Z,4.10
2023-05-10T07:56:49.874Z,4.00
2023-05-10T07:59:19.371Z,3.50
2023-05-10T08:01:48.574Z,4.23
2023-05-10T08:04:16.511Z,4.07
2023-05-10T08:06:44.560Z,3.50
2023-05-10T08:09:12.461Z,3.80
2023-05-10T08:11:40.355Z,3.57
2023-05-10T08:14:08.219Z,3.50
2023-05-10T08:16:36.452Z,4.10
2023-05-10T08:19:05.809Z,3.23
2023-05-10T08:21:33.763Z,3.03
2023-05-10T08:24:01.652Z,2.80
2023-05-10T08:26:29.459Z,3.40
2023-05-10T08:28:57.313Z,3.00
2023-05-10T08:31:25.168Z,4.00
2023-05-10T08:33:53.651Z,3.40
2023-05-10T08:36:25.215Z,3.77
2023-05-10T08:38:53.488Z,4.20
2023-05-10T08:41:22.660Z,4.00
2023-05-10T08:43:51.769Z,4.20
2023-05-10T08:46:21.032Z,4.30
2023-05-10T08:48:50.243Z,4.47
2023-05-10T08:51:20.024Z,4.43
2023-05-10T08:53:49.286Z,4.57
2023-05-10T08:56:18.809Z,3.97
2023-05-10T08:58:46.709Z,3.87
2023-05-10T09:01:15.093Z,3.73
2023-05-10T09:03:43.726Z,3.73
2023-05-10T09:06:14.143Z,3.00
2023-05-10T09:08:42.641Z,3.43
2023-05-10T09:11:13.813Z,2.80
2023-05-10T09:13:41.734Z,2.60
2023-05-10T09:16:20.314Z,2.50
2023-05-10T09:18:50.354Z,1.90
2023-05-10T09:21:18.507Z,1.70
2023-05-10T09:23:48.721Z,2.17
2023-05-10T09:26:18.468Z,1.80
2023-05-10T09:28:53.740Z,1.30
2023-05-10T09:31:21.939Z,1.53
2023-05-10T09:33:50.989Z,1.40
2023-05-10T09:36:19.292Z,1.53
2023-05-10T09:38:47.947Z,2.20
2023-05-10T09:41:21.173Z,1.70
2023-05-10T09:43:49.193Z,2.10
2023-05-10T09:46:17.804Z,1.30
2023-05-10T09:48:47.261Z,1.80
2023-05-10T09:51:21.277Z,1.00
2023-05-10T09:53:51.471Z,1.50
2023-05-10T09:56:40.754Z,1.30
2023-05-10T09:59:11.504Z,1.40
2023-05-10T10:01:39.599Z,1.43
2023-05-10T10:04:08.713Z,1.20
2023-05-10T10:06:40.870Z,1.57
2023-05-10T10:09:09.419Z,1.93
2023-05-10T10:11:39.732Z,1.40
2023-05-10T10:14:07.907Z,1.63
2023-05-10T10:16:36.037Z,1.80
2023-05-10T10:19:04.147Z,1.60
2023-05-10T10:21:32.167Z,1.50
2023-05-10T10:24:00.038Z,1.67
2023-05-10T10:26:28.243Z,1.30
2023-05-10T10:29:09.488Z,1.40
2023-05-10T10:31:43.235Z,1.63
2023-05-10T10:34:15.049Z,1.60
2023-05-10T10:36:44.971Z,1.20
2023-05-10T10:39:13.352Z,1.50
2023-05-10T10:41:44.930Z,1.60
2023-05-10T10:44:39.010Z,1.50
2023-05-10T10:47:12.225Z,1.43
2023-05-10T10:49:44.624Z,1.30
2023-05-10T10:52:16.844Z,1.40
2023-05-10T10:54:52.260Z,1.10
2023-05-10T10:57:21.839Z,1.20
2023-05-10T10:59:51.219Z,1.63
2023-05-10T11:02:46.953Z,1.40
2023-05-10T11:05:39.644Z,1.00
2023-05-10T11:08:18.951Z,1.30
2023-05-10T11:11:10.679Z,1.37
2023-05-10T11:13:43.147Z,1.13
2023-05-10T11:16:17.694Z,1.10
2023-05-10T11:19:03.771Z,1.60
2023-05-10T11:21:32.403Z,1.07
2023-05-10T11:24:01.399Z,1.40
2023-05-10T11:26:33.464Z,1.27
2023-05-10T11:29:01.883Z,1.33
2023-05-10T11:31:31.343Z,1.33
2023-05-10T11:34:00.718Z,1.00
2023-05-10T11:36:30.695Z,1.20
2023-05-10T11:38:59.096Z,1.70
2023-05-10T11:41:28.401Z,0.93
2023-05-10T11:43:56.676Z,0.80
2023-05-10T11:46:26.323Z,1.10
2023-05-10T11:48:58.317Z,1.03
2023-05-10T11:51:26.911Z,1.10
2023-05-10T11:53:56.200Z,0.80
2023-05-10T11:56:24.613Z,1.00
2023-05-10T11:58:55.572Z,1.20
2023-05-10T12:01:23.628Z,1.00
2023-05-10T12:03:51.879Z,0.83
2023-05-10T12:06:21.835Z,1.13
2023-05-10T12:08:53.470Z,0.80
2023-05-10T12:11:22.792Z,0.80
2023-05-10T12:13:50.964Z,0.80
2023-05-10T12:16:20.067Z,1.13
2023-05-10T12:18:50.330Z,0.80
2023-05-10T12:21:18.181Z,1.20
2023-05-10T12:23:48.396Z,0.93
2023-05-10T12:26:16.312Z,1.87
2023-05-10T12:28:44.393Z,1.10
2023-05-10T12:31:12.180Z,1.20
2023-05-10T12:33:42.706Z,1.00
2023-05-10T12:36:11.624Z,0.83
2023-05-10T12:38:40.836Z,1.20
2023-05-10T12:41:11.885Z,1.10
2023-05-10T12:43:40.512Z,0.80
2023-05-10T12:46:09.575Z,0.90
2023-05-10T12:48:37.895Z,0.90
2023-05-10T12:51:09.644Z,0.90
2023-05-10T12:53:37.740Z,0.87
2023-05-10T12:56:06.470Z,1.70
2023-05-10T12:58:36.600Z,0.87
2023-05-10T13:01:05.886Z,1.00
2023-05-10T13:03:33.943Z,0.90
2023-05-10T13:06:01.951Z,0.80
2023-05-10T13:08:34.127Z,1.20
2023-05-10T13:11:02.275Z,1.03
2023-05-10T13:13:30.195Z,1.50
2023-05-10T13:15:59.467Z,1.00
2023-05-10T13:18:27.841Z,1.30
2023-05-10T13:20:56.768Z,1.03
2023-05-10T13:23:24.721Z,1.60
2023-05-10T13:25:53.106Z,1.40
2023-05-10T13:28:20.952Z,1.20
2023-05-10T13:30:48.802Z,1.30
2023-05-10T13:33:18.008Z,1.53
2023-05-10T13:35:46.215Z,1.23
2023-05-10T13:38:14.837Z,1.20
2023-05-10T13:40:42.755Z,1.00
2023-05-10T13:43:10.637Z,1.00
2023-05-10T13:45:38.509Z,0.97
2023-05-10T13:48:06.874Z,1.10
2023-05-10T13:50:36.098Z,1.00
2023-05-10T13:53:04.230Z,1.07
2023-05-10T13:55:32.012Z,1.00
2023-05-10T13:57:59.930Z,1.20
2023-05-10T14:00:28.170Z,1.00
2023-05-10T14:02:56.206Z,1.13
2023-05-10T14:05:26.302Z,1.67
2023-05-10T14:07:55.877Z,1.50
2023-05-10T14:10:23.688Z,1.67
2023-05-10T14:12:51.723Z,1.40
2023-05-10T14:15:19.655Z,1.30
2023-05-10T14:17:47.687Z,1.20
2023-05-10T14:20:16.050Z,1.20
2023-05-10T14:22:43.914Z,1.20
2023-05-10T14:25:13.207Z,1.30
2023-05-10T14:27:41.087Z,1.43
2023-05-10T14:30:10.091Z,1.10
2023-05-10T14:32:38.768Z,1.10
2023-05-10T14:35:09.016Z,1.10
2023-05-10T14:37:38.648Z,1.10
2023-05-10T14:40:08.826Z,1.40
2023-05-10T14:42:37.990Z,1.50
2023-05-10T14:45:06.925Z,1.30
2023-05-10T14:47:34.853Z,1.20
2023-05-10T14:50:02.995Z,1.00
2023-05-10T14:52:34.080Z,1.17
2023-05-10T14:55:02.403Z,1.13
2023-05-10T14:57:30.768Z,1.23
2023-05-10T15:00:00.012Z,1.20
2023-05-10T15:02:28.662Z,1.20
2023-05-10T15:04:57.053Z,1.10
2023-05-10T15:07:25.339Z,1.03
2023-05-10T15:09:53.607Z,0.93
2023-05-10T15:12:21.512Z,0.90
2023-05-10T15:14:49.346Z,1.00
2023-05-10T15:17:18.646Z,0.80
2023-05-10T15:19:46.672Z,1.23
2023-05-10T15:22:14.685Z,1.00
2023-05-10T15:24:42.613Z,1.00
2023-05-10T15:27:10.497Z,1.07
2023-05-10T15:29:38.345Z,0.90
2023-05-10T15:32:06.341Z,1.10
2023-05-10T15:34:37.111Z,1.40
2023-05-10T15:37:05.057Z,0.90
2023-05-10T15:39:33.089Z,1.10
2023-05-10T15:42:02.302Z,1.10
2023-05-10T15:44:30.164Z,0.90
2023-05-10T15:46:58.119Z,1.00
2023-05-10T15:49:26.028Z,1.20
2023-05-10T15:51:55.280Z,1.60
2023-05-10T15:54:23.248Z,1.00
2023-05-10T15:56:51.199Z,0.90
2023-05-10T15:59:19.067Z,1.20
2023-05-10T16:01:47.956Z,0.90
2023-05-10T16:04:16.305Z,1.00
2023-05-10T16:06:44.183Z,1.00
2023-05-10T16:09:13.565Z,1.20
2023-05-10T16:11:42.090Z,1.03
2023-05-10T16:14:10.000Z,0.80
2023-05-10T16:16:38.118Z,1.10
2023-05-10T16:19:08.851Z,1.10
2023-05-10T16:21:36.775Z,1.00
2023-05-10T16:24:04.886Z,0.90
2023-05-10T16:26:36.700Z,1.10
2023-05-10T16:29:04.564Z,1.07
2023-05-10T16:31:32.599Z,1.10
2023-05-10T16:34:00.505Z,1.20
2023-05-10T16:36:29.557Z,1.00
2023-05-10T16:38:57.603Z,1.00
2023-05-10T16:41:26.471Z,0.90
2023-05-10T16:43:57.672Z,0.80
2023-05-10T16:46:25.531Z,1.03
2023-05-10T16:48:53.524Z,1.00
2023-05-10T16:51:21.458Z,1.20
2023-05-10T16:53:49.328Z,0.80
2023-05-10T16:56:18.410Z,0.93
2023-05-10T16:58:49.871Z,0.90
2023-05-10T17:01:19.395Z,1.03
2023-05-10T17:03:47.316Z,0.77
2023-05-10T17:06:15.299Z,0.93
2023-05-10T17:08:43.254Z,1.30
2023-05-10T17:11:11.088Z,0.90
2023-05-10T17:13:39.816Z,1.00
2023-05-10T17:16:08.249Z,0.83
2023-05-10T17:18:37.738Z,0.90
2023-05-10T17:21:05.729Z,0.80
2023-05-10T17:23:33.575Z,1.00
2023-05-10T17:26:01.789Z,0.90
2023-05-10T17:28:29.727Z,1.30
2023-05-10T17:30:58.415Z,1.10
2023-05-10T17:33:26.236Z,0.90
2023-05-10T17:35:56.428Z,1.00
2023-05-10T17:38:24.264Z,1.13
2023-05-10T17:40:52.549Z,1.10
2023-05-10T17:43:21.617Z,1.03
2023-05-10T17:45:50.750Z,1.00
2023-05-10T17:48:18.848Z,0.80
2023-05-10T17:50:46.969Z,0.90
2023-05-10T17:53:16.378Z,0.90
2023-05-10T17:55:44.524Z,1.10
2023-05-10T17:58:13.303Z,0.97
2023-05-10T18:00:41.483Z,1.20
2023-05-10T18:03:09.314Z,0.87
2023-05-10T18:05:38.048Z,1.00
2023-05-10T18:08:07.248Z,1.27
2023-05-10T18:10:39.323Z,1.03
2023-05-10T18:13:08.951Z,0.93
2023-05-10T18:15:37.156Z,1.00
2023-05-10T18:18:05.628Z,1.07
2023-05-10T18:20:33.917Z,1.10
2023-05-10T18:23:02.512Z,1.10
2023-05-10T18:25:30.572Z,0.93
2023-05-10T18:27:59.773Z,1.17
2023-05-10T18:30:27.720Z,1.57
2023-05-10T18:32:55.883Z,1.27
2023-05-10T18:35:23.744Z,1.10
2023-05-10T18:37:52.918Z,1.13
2023-05-10T18:40:21.057Z,1.33
2023-05-10T18:42:50.134Z,1.00
2023-05-10T18:45:19.829Z,1.07
2023-05-10T18:47:48.395Z,1.13
2023-05-10T18:50:17.066Z,1.00
2023-05-10T18:52:45.515Z,1.10
2023-05-10T18:55:13.682Z,1.10
2023-05-10T18:57:42.408Z,1.20
2023-05-10T19:00:12.310Z,1.13
2023-05-10T19:02:42.469Z,1.10
2023-05-10T19:05:11.426Z,1.30
2023-05-10T19:07:40.595Z,1.20
2023-05-10T19:10:09.558Z,1.53
2023-05-10T19:12:37.758Z,1.67
2023-05-10T19:15:06.383Z,1.97
2023-05-10T19:17:34.284Z,1.87
2023-05-10T19:20:04.956Z,1.50
2023-05-10T19:22:47.215Z,1.33
2023-05-10T19:25:21.529Z,1.43
2023-05-10T19:27:49.431Z,1.43
2023-05-10T19:30:17.254Z,1.50
2023-05-10T19:32:45.156Z,1.80
2023-05-10T19:35:14.472Z,1.30
2023-05-10T19:37:45.928Z,1.67
2023-05-10T19:40:14.941Z,1.50
2023-05-10T19:42:42.824Z,1.77
2023-05-10T19:45:11.923Z,1.80
2023-05-10T19:47:39.799Z,1.53
2023-05-10T19:50:09.056Z,1.67
2023-05-10T19:52:38.270Z,1.70
2023-05-10T19:55:07.259Z,1.73
2023-05-10T19:57:41.250Z,1.60
2023-05-10T20:00:10.584Z,1.77
2023-05-10T20:02:41.508Z,1.87
2023-05-10T20:05:10.147Z,1.40
2023-05-10T20:07:39.404Z,1.33
2023-05-10T20:10:08.417Z,1.43
2023-05-10T20:12:36.493Z,1.37
2023-05-10T20:15:04.677Z,1.30
2023-05-10T20:17:32.587Z,1.50
2023-05-10T20:20:00.421Z,1.17
2023-05-10T20:22:28.222Z,1.63
2023-05-10T20:24:58.548Z,1.17
2023-05-10T20:27:26.399Z,1.50
2023-05-10T20:29:54.243Z,1.63
2023-05-10T20:32:22.145Z,1.13
2023-05-10T20:34:50.082Z,1.33
2023-05-10T20:37:18.191Z,1.57
2023-05-10T20:39:46.628Z,1.40
2023-05-10T20:42:16.628Z,1.50
2023-05-10T20:44:44.484Z,1.50
2023-05-10T20:47:12.490Z,1.80
2023-05-10T20:49:40.603Z,1.33
2023-05-10T20:52:08.481Z,1.60
2023-05-10T20:54:36.482Z,1.60
2023-05-10T20:57:04.472Z,1.70
2023-05-10T20:59:33.763Z,1.90
2023-05-10T21:02:01.677Z,1.93
2023-05-10T21:04:29.814Z,1.63
2023-05-10T21:06:57.812Z,1.57
2023-05-10T21:09:25.714Z,1.50
2023-05-10T21:11:53.658Z,1.80
2023-05-10T21:14:21.770Z,1.43
2023-05-10T21:16:51.363Z,1.57
2023-05-10T21:19:19.205Z,1.57
2023-05-10T21:21:47.045Z,1.60
2023-05-10T21:24:14.973Z,1.43
2023-05-10T21:26:43.274Z,1.80
2023-05-10T21:29:11.108Z,1.63
2023-05-10T21:31:38.965Z,1.53
2023-05-10T21:34:11.081Z,1.47
2023-05-10T21:36:38.907Z,1.60
2023-05-10T21:39:07.024Z,1.63
2023-05-10T21:41:34.827Z,1.73
2023-05-10T21:44:02.704Z,1.40
2023-05-10T21:46:30.500Z,1.60
2023-05-10T21:48:58.392Z,1.80
2023-05-10T21:51:29.159Z,1.33
2023-05-10T21:53:57.129Z,1.17
2023-05-10T21:56:24.971Z,1.33
2023-05-10T21:58:52.806Z,1.87
2023-05-10T22:01:20.816Z,1.40
2023-05-10T22:03:48.967Z,1.53
2023-05-10T22:06:16.894Z,1.33
2023-05-10T22:08:46.070Z,1.37
2023-05-10T22:11:14.289Z,1.90
2023-05-10T22:13:42.165Z,1.50
2023-05-10T22:16:10.005Z,1.47
2023-05-10T22:18:38.103Z,1.30
2023-05-10T22:21:06.203Z,1.40
2023-05-10T22:23:34.057Z,1.53
2023-05-10T22:26:04.154Z,2.00
2023-05-10T22:28:32.038Z,1.33
2023-05-10T22:30:59.948Z,1.20
2023-05-10T22:33:28.001Z,1.60
2023-05-10T22:35:55.878Z,1.23
2023-05-10T22:38:23.685Z,1.10
2023-05-10T22:40:51.602Z,1.13
2023-05-10T22:43:20.864Z,1.30
2023-05-10T22:45:48.743Z,1.23
2023-05-10T22:48:16.580Z,1.27
2023-05-10T22:50:44.448Z,1.10
2023-05-10T22:53:12.210Z,1.33
2023-05-10T22:55:40.089Z,0.90
2023-05-10T22:58:08.088Z,1.00
2023-05-10T23:00:37.340Z,1.00
2023-05-10T23:03:06.580Z,1.03
2023-05-10T23:05:34.479Z,1.23
2023-05-10T23:08:02.365Z,1.20
2023-05-10T23:10:30.647Z,1.43
2023-05-10T23:12:58.504Z,1.50
2023-05-10T23:15:26.415Z,1.00
2023-05-10T23:17:55.914Z,1.50
2023-05-10T23:20:23.790Z,1.40
2023-05-10T23:22:51.669Z,1.37
2023-05-10T23:25:19.554Z,1.20
2023-05-10T23:27:47.412Z,1.37
2023-05-10T23:30:15.622Z,1.83
2023-05-10T23:32:43.745Z,1.43
2023-05-10T23:35:13.380Z,1.30
2023-05-10T23:37:42.298Z,1.00
2023-05-10T23:40:11.101Z,1.33
2023-05-10T23:42:38.902Z,1.13
2023-05-10T23:45:07.722Z,1.20
2023-05-10T23:47:35.779Z,1.17
2023-05-10T23:50:05.235Z,1.10
2023-05-10T23:52:34.757Z,1.00
2023-05-10T23:55:02.697Z,1.43
2023-05-10T23:57:30.523Z,1.00
2023-05-10T23:59:58.347Z,0.93
